sensor_id;sensor_type;location;lat;lon;timestamp;pressure;altitude;pressure_sealevel;temperature;humidity
49473;BME280;67434;50.956;6.918;2023-03-14T00:02:20;98707.84;;;10.19;73.88
49473;BME280;67434;50.956;6.918;2023-03-14T00:04:46;98713.34;;;10.14;74.17
49473;BME280;67434;50.956;6.918;2023-03-14T00:07:12;98699.47;;;10.07;73.96
49473;BME280;67434;50.956;6.918;2023-03-14T00:09:38;98694.28;;;9.96;74.58
49473;BME280;67434;50.956;6.918;2023-03-14T00:12:04;98716.28;;;10.03;74.51
49473;BME280;67434;50.956;6.918;2023-03-14T00:14:30;98725.88;;;10.10;73.89
49473;BME280;67434;50.956;6.918;2023-03-14T00:16:56;98746.75;;;10.18;73.63
49473;BME280;67434;50.956;6.918;2023-03-14T00:19:21;98769.75;;;10.29;73.21
49473;BME280;67434;50.956;6.918;2023-03-14T00:21:47;98765.72;;;10.40;72.80
49473;BME280;67434;50.956;6.918;2023-03-14T00:24:12;98756.72;;;10.45;72.42
49473;BME280;67434;50.956;6.918;2023-03-14T00:26:37;98745.81;;;10.50;72.08
49473;BME280;67434;50.956;6.918;2023-03-14T00:29:03;98748.88;;;10.57;71.72
49473;BME280;67434;50.956;6.918;2023-03-14T00:31:28;98755.22;;;10.75;70.82
49473;BME280;67434;50.956;6.918;2023-03-14T00:33:54;98757.41;;;10.86;70.56
49473;BME280;67434;50.956;6.918;2023-03-14T00:36:20;98744.56;;;10.92;70.26
49473;BME280;67434;50.956;6.918;2023-03-14T00:38:48;98742.69;;;11.01;69.38
49473;BME280;67434;50.956;6.918;2023-03-14T00:41:16;98752.78;;;11.09;69.61
49473;BME280;67434;50.956;6.918;2023-03-14T00:43:43;98749.44;;;11.12;69.15
49473;BME280;67434;50.956;6.918;2023-03-14T00:46:09;98737.59;;;11.22;68.76
49473;BME280;67434;50.956;6.918;2023-03-14T00:48:35;98735.56;;;11.27;68.26
49473;BME280;67434;50.956;6.918;2023-03-14T00:51:02;98739.72;;;11.34;68.17
49473;BME280;67434;50.956;6.918;2023-03-14T00:53:27;98734.81;;;11.36;68.01
49473;BME280;67434;50.956;6.918;2023-03-14T00:55:53;98735.91;;;11.35;68.14
49473;BME280;67434;50.956;6.918;2023-03-14T00:58:18;98736.88;;;11.39;67.89
49473;BME280;67434;50.956;6.918;2023-03-14T01:00:44;98731.66;;;11.42;67.96
49473;BME280;67434;50.956;6.918;2023-03-14T01:03:10;98739.44;;;11.44;67.80
49473;BME280;67434;50.956;6.918;2023-03-14T01:05:36;98736.75;;;11.44;67.65
49473;BME280;67434;50.956;6.918;2023-03-14T01:08:02;98737.41;;;11.49;67.77
49473;BME280;67434;50.956;6.918;2023-03-14T01:10:28;98740.91;;;11.50;67.63
49473;BME280;67434;50.956;6.918;2023-03-14T01:12:54;98745.22;;;11.51;68.21
49473;BME280;67434;50.956;6.918;2023-03-14T01:15:20;98754.44;;;11.50;69.07
49473;BME280;67434;50.956;6.918;2023-03-14T01:17:46;98766.50;;;11.44;70.36
49473;BME280;67434;50.956;6.918;2023-03-14T01:20:12;98797.00;;;11.36;71.79
49473;BME280;67434;50.956;6.918;2023-03-14T01:22:39;98808.94;;;11.12;74.71
49473;BME280;67434;50.956;6.918;2023-03-14T01:25:10;98802.06;;;10.70;76.74
49473;BME280;67434;50.956;6.918;2023-03-14T01:27:36;98789.03;;;10.36;79.50
49473;BME280;67434;50.956;6.918;2023-03-14T01:30:02;98774.16;;;10.25;79.37
49473;BME280;67434;50.956;6.918;2023-03-14T01:32:29;98774.84;;;10.17;80.60
49473;BME280;67434;50.956;6.918;2023-03-14T01:34:55;98763.25;;;10.16;81.46
49473;BME280;67434;50.956;6.918;2023-03-14T01:37:21;98764.16;;;10.12;82.01
49473;BME280;67434;50.956;6.918;2023-03-14T01:39:47;98757.97;;;10.11;81.84
49473;BME280;67434;50.956;6.918;2023-03-14T01:42:13;98753.53;;;10.01;81.87
49473;BME280;67434;50.956;6.918;2023-03-14T01:47:13;98749.06;;;9.83;82.40
49473;BME280;67434;50.956;6.918;2023-03-14T01:49:39;98756.66;;;9.81;82.17
49473;BME280;67434;50.956;6.918;2023-03-14T01:52:06;98761.38;;;9.76;82.47
49473;BME280;67434;50.956;6.918;2023-03-14T01:54:37;98741.47;;;9.71;82.42
49473;BME280;67434;50.956;6.918;2023-03-14T01:59:52;98721.88;;;9.66;82.61
49473;BME280;67434;50.956;6.918;2023-03-14T02:02:19;98720.66;;;9.58;82.56
49473;BME280;67434;50.956;6.918;2023-03-14T02:04:45;98730.16;;;9.42;83.22
49473;BME280;67434;50.956;6.918;2023-03-14T02:07:15;98739.00;;;9.29;83.63
49473;BME280;67434;50.956;6.918;2023-03-14T02:09:42;98734.00;;;9.22;83.00
49473;BME280;67434;50.956;6.918;2023-03-14T02:12:09;98736.88;;;9.12;83.89
49473;BME280;67434;50.956;6.918;2023-03-14T02:14:37;98752.56;;;9.10;84.41
49473;BME280;67434;50.956;6.918;2023-03-14T02:17:04;98723.31;;;9.17;83.67
49473;BME280;67434;50.956;6.918;2023-03-14T02:22:35;98721.03;;;9.24;83.14
49473;BME280;67434;50.956;6.918;2023-03-14T02:25:13;98735.00;;;9.26;82.54
49473;BME280;67434;50.956;6.918;2023-03-14T02:27:41;98734.94;;;9.31;82.03
49473;BME280;67434;50.956;6.918;2023-03-14T02:30:19;98730.66;;;9.30;82.53
49473;BME280;67434;50.956;6.918;2023-03-14T02:32:47;98722.31;;;9.27;83.41
49473;BME280;67434;50.956;6.918;2023-03-14T02:35:17;98726.91;;;9.26;83.23
49473;BME280;67434;50.956;6.918;2023-03-14T02:37:56;98723.31;;;9.17;83.05
49473;BME280;67434;50.956;6.918;2023-03-14T02:40:22;98715.22;;;9.17;84.01
49473;BME280;67434;50.956;6.918;2023-03-14T02:42:48;98712.53;;;9.17;83.60
49473;BME280;67434;50.956;6.918;2023-03-14T02:48:00;98701.22;;;9.01;83.66
49473;BME280;67434;50.956;6.918;2023-03-14T02:50:31;98703.56;;;8.89;84.63
49473;BME280;67434;50.956;6.918;2023-03-14T02:52:58;98709.25;;;8.88;84.73
49473;BME280;67434;50.956;6.918;2023-03-14T02:55:24;98709.84;;;8.85;84.91
49473;BME280;67434;50.956;6.918;2023-03-14T02:57:52;98697.31;;;8.94;84.48
49473;BME280;67434;50.956;6.918;2023-03-14T03:00:18;98698.53;;;9.01;84.23
49473;BME280;67434;50.956;6.918;2023-03-14T03:02:44;98696.28;;;8.90;84.48
49473;BME280;67434;50.956;6.918;2023-03-14T03:05:10;98690.50;;;8.83;84.89
49473;BME280;67434;50.956;6.918;2023-03-14T03:07:35;98687.78;;;8.83;84.76
49473;BME280;67434;50.956;6.918;2023-03-14T03:10:00;98680.13;;;8.90;85.56
49473;BME280;67434;50.956;6.918;2023-03-14T03:12:26;98677.53;;;8.85;84.86
49473;BME280;67434;50.956;6.918;2023-03-14T03:14:51;98668.78;;;8.93;84.41
49473;BME280;67434;50.956;6.918;2023-03-14T03:17:16;98674.38;;;8.96;85.07
49473;BME280;67434;50.956;6.918;2023-03-14T03:19:42;98676.19;;;9.01;84.62
49473;BME280;67434;50.956;6.918;2023-03-14T03:22:07;98679.38;;;9.03;84.24
49473;BME280;67434;50.956;6.918;2023-03-14T03:24:32;98670.69;;;9.06;84.04
49473;BME280;67434;50.956;6.918;2023-03-14T03:26:58;98667.41;;;9.09;84.75
49473;BME280;67434;50.956;6.918;2023-03-14T03:29:23;98670.81;;;9.15;84.40
49473;BME280;67434;50.956;6.918;2023-03-14T03:31:48;98670.00;;;9.14;83.88
49473;BME280;67434;50.956;6.918;2023-03-14T03:34:14;98673.19;;;9.16;83.85
49473;BME280;67434;50.956;6.918;2023-03-14T03:36:40;98661.31;;;9.17;83.72
49473;BME280;67434;50.956;6.918;2023-03-14T03:39:06;98654.03;;;9.18;83.95
49473;BME280;67434;50.956;6.918;2023-03-14T03:41:32;98660.91;;;9.24;83.30
49473;BME280;67434;50.956;6.918;2023-03-14T03:43:59;98657.25;;;9.33;83.32
49473;BME280;67434;50.956;6.918;2023-03-14T03:46:24;98659.25;;;9.42;81.50
49473;BME280;67434;50.956;6.918;2023-03-14T03:48:59;98658.44;;;9.41;81.58
49473;BME280;67434;50.956;6.918;2023-03-14T03:51:25;98660.25;;;9.46;80.76
49473;BME280;67434;50.956;6.918;2023-03-14T03:53:51;98655.25;;;9.53;80.83
49473;BME280;67434;50.956;6.918;2023-03-14T03:56:16;98657.03;;;9.57;79.63
49473;BME280;67434;50.956;6.918;2023-03-14T03:58:42;98655.34;;;9.61;79.91
49473;BME280;67434;50.956;6.918;2023-03-14T04:01:08;98662.75;;;9.69;79.57
49473;BME280;67434;50.956;6.918;2023-03-14T04:03:34;98654.25;;;9.76;78.83
49473;BME280;67434;50.956;6.918;2023-03-14T04:06:02;98651.03;;;9.74;79.00
49473;BME280;67434;50.956;6.918;2023-03-14T04:08:27;98650.94;;;9.79;78.91
49473;BME280;67434;50.956;6.918;2023-03-14T04:10:57;98661.91;;;9.83;79.08
49473;BME280;67434;50.956;6.918;2023-03-14T04:13:23;98660.81;;;9.84;79.53
49473;BME280;67434;50.956;6.918;2023-03-14T04:15:48;98655.72;;;9.82;80.14
49473;BME280;67434;50.956;6.918;2023-03-14T04:18:14;98652.44;;;9.71;80.25
49473;BME280;67434;50.956;6.918;2023-03-14T04:20:39;98645.25;;;9.67;80.76
49473;BME280;67434;50.956;6.918;2023-03-14T04:23:05;98642.84;;;9.65;81.11
49473;BME280;67434;50.956;6.918;2023-03-14T04:25:30;98639.66;;;9.63;81.57
49473;BME280;67434;50.956;6.918;2023-03-14T04:27:56;98640.94;;;9.66;81.82
49473;BME280;67434;50.956;6.918;2023-03-14T04:30:21;98639.56;;;9.68;80.89
49473;BME280;67434;50.956;6.918;2023-03-14T04:32:47;98643.75;;;9.61;81.86
49473;BME280;67434;50.956;6.918;2023-03-14T04:35:12;98642.25;;;9.55;82.47
49473;BME280;67434;50.956;6.918;2023-03-14T04:37:37;98649.84;;;9.53;82.94
49473;BME280;67434;50.956;6.918;2023-03-14T04:40:03;98640.56;;;9.59;82.13
49473;BME280;67434;50.956;6.918;2023-03-14T04:42:31;98641.53;;;9.63;81.67
49473;BME280;67434;50.956;6.918;2023-03-14T04:44:56;98632.16;;;9.60;82.22
49473;BME280;67434;50.956;6.918;2023-03-14T04:47:22;98634.16;;;9.55;82.67
49473;BME280;67434;50.956;6.918;2023-03-14T04:49:47;98623.25;;;9.60;82.45
49473;BME280;67434;50.956;6.918;2023-03-14T04:52:13;98614.69;;;9.58;82.55
49473;BME280;67434;50.956;6.918;2023-03-14T04:54:38;98618.47;;;9.57;82.88
49473;BME280;67434;50.956;6.918;2023-03-14T04:57:03;98606.69;;;9.53;83.04
49473;BME280;67434;50.956;6.918;2023-03-14T04:59:29;98609.69;;;9.51;83.66
49473;BME280;67434;50.956;6.918;2023-03-14T05:01:54;98596.94;;;9.43;83.60
49473;BME280;67434;50.956;6.918;2023-03-14T05:04:20;98589.81;;;9.47;83.18
49473;BME280;67434;50.956;6.918;2023-03-14T05:06:45;98596.03;;;9.48;83.23
49473;BME280;67434;50.956;6.918;2023-03-14T05:09:11;98591.72;;;9.47;83.66
49473;BME280;67434;50.956;6.918;2023-03-14T05:11:36;98589.03;;;9.47;83.61
49473;BME280;67434;50.956;6.918;2023-03-14T05:14:01;98584.72;;;9.46;82.87
49473;BME280;67434;50.956;6.918;2023-03-14T05:16:27;98576.84;;;9.49;82.72
49473;BME280;67434;50.956;6.918;2023-03-14T05:18:52;98578.72;;;9.49;82.85
49473;BME280;67434;50.956;6.918;2023-03-14T05:21:17;98575.25;;;9.48;82.12
49473;BME280;67434;50.956;6.918;2023-03-14T05:23:43;98568.94;;;9.53;81.48
49473;BME280;67434;50.956;6.918;2023-03-14T05:26:08;98565.94;;;9.54;81.68
49473;BME280;67434;50.956;6.918;2023-03-14T05:28:33;98563.44;;;9.58;81.36
49473;BME280;67434;50.956;6.918;2023-03-14T05:30:59;98557.34;;;9.52;81.25
49473;BME280;67434;50.956;6.918;2023-03-14T05:33:24;98570.03;;;9.52;81.33
49473;BME280;67434;50.956;6.918;2023-03-14T05:35:49;98562.25;;;9.50;81.18
49473;BME280;67434;50.956;6.918;2023-03-14T05:38:15;98557.84;;;9.54;80.16
49473;BME280;67434;50.956;6.918;2023-03-14T05:40:40;98560.44;;;9.59;79.57
49473;BME280;67434;50.956;6.918;2023-03-14T05:43:05;98569.31;;;9.60;79.71
49473;BME280;67434;50.956;6.918;2023-03-14T05:45:34;98567.72;;;9.59;80.08
49473;BME280;67434;50.956;6.918;2023-03-14T05:48:00;98562.13;;;9.55;80.25
49473;BME280;67434;50.956;6.918;2023-03-14T05:50:25;98563.31;;;9.63;79.27
49473;BME280;67434;50.956;6.918;2023-03-14T05:52:50;98564.13;;;9.63;79.54
49473;BME280;67434;50.956;6.918;2023-03-14T05:55:16;98560.31;;;9.64;79.06
49473;BME280;67434;50.956;6.918;2023-03-14T05:57:41;98558.72;;;9.63;78.69
49473;BME280;67434;50.956;6.918;2023-03-14T06:00:07;98564.53;;;9.70;78.74
49473;BME280;67434;50.956;6.918;2023-03-14T06:02:33;98562.31;;;9.73;78.77
49473;BME280;67434;50.956;6.918;2023-03-14T06:04:58;98563.59;;;9.75;79.25
49473;BME280;67434;50.956;6.918;2023-03-14T06:07:23;98557.41;;;9.75;79.83
49473;BME280;67434;50.956;6.918;2023-03-14T06:09:49;98550.84;;;9.67;80.23
49473;BME280;67434;50.956;6.918;2023-03-14T06:12:14;98555.03;;;9.59;80.48
49473;BME280;67434;50.956;6.918;2023-03-14T06:14:39;98549.22;;;9.66;79.70
49473;BME280;67434;50.956;6.918;2023-03-14T06:17:05;98540.44;;;9.74;79.28
49473;BME280;67434;50.956;6.918;2023-03-14T06:19:30;98553.63;;;9.76;80.18
49473;BME280;67434;50.956;6.918;2023-03-14T06:21:55;98543.13;;;9.74;79.48
49473;BME280;67434;50.956;6.918;2023-03-14T06:24:21;98549.63;;;9.73;79.24
49473;BME280;67434;50.956;6.918;2023-03-14T06:26:46;98539.31;;;9.75;79.28
49473;BME280;67434;50.956;6.918;2023-03-14T06:29:11;98539.94;;;9.72;79.18
49473;BME280;67434;50.956;6.918;2023-03-14T06:31:38;98547.91;;;9.77;79.36
49473;BME280;67434;50.956;6.918;2023-03-14T06:34:38;98550.25;;;9.92;78.47
49473;BME280;67434;50.956;6.918;2023-03-14T06:37:04;98546.72;;;10.06;78.50
49473;BME280;67434;50.956;6.918;2023-03-14T06:39:29;98553.91;;;10.10;77.50
49473;BME280;67434;50.956;6.918;2023-03-14T06:41:56;98558.19;;;10.11;78.03
49473;BME280;67434;50.956;6.918;2023-03-14T06:44:21;98537.97;;;10.22;77.36
49473;BME280;67434;50.956;6.918;2023-03-14T06:46:47;98551.03;;;10.29;77.17
49473;BME280;67434;50.956;6.918;2023-03-14T06:49:12;98547.25;;;10.39;77.06
49473;BME280;67434;50.956;6.918;2023-03-14T06:51:37;98547.50;;;10.51;76.20
49473;BME280;67434;50.956;6.918;2023-03-14T06:54:03;98556.75;;;10.58;76.13
49473;BME280;67434;50.956;6.918;2023-03-14T06:56:28;98548.03;;;10.61;75.51
49473;BME280;67434;50.956;6.918;2023-03-14T06:58:53;98542.78;;;10.56;75.71
49473;BME280;67434;50.956;6.918;2023-03-14T07:01:27;98547.50;;;10.51;75.68
49473;BME280;67434;50.956;6.918;2023-03-14T07:03:53;98538.63;;;10.50;75.38
49473;BME280;67434;50.956;6.918;2023-03-14T07:06:18;98550.03;;;10.47;75.94
49473;BME280;67434;50.956;6.918;2023-03-14T07:08:44;98545.00;;;10.54;75.97
49473;BME280;67434;50.956;6.918;2023-03-14T07:11:10;98552.16;;;10.59;75.45
49473;BME280;67434;50.956;6.918;2023-03-14T07:13:37;98558.44;;;10.77;75.27
49473;BME280;67434;50.956;6.918;2023-03-14T07:16:03;98559.91;;;10.83;75.45
49473;BME280;67434;50.956;6.918;2023-03-14T07:18:29;98571.06;;;10.90;75.13
49473;BME280;67434;50.956;6.918;2023-03-14T07:20:54;98564.88;;;10.89;75.09
49473;BME280;67434;50.956;6.918;2023-03-14T07:23:19;98569.66;;;10.92;75.02
49473;BME280;67434;50.956;6.918;2023-03-14T07:25:45;98578.88;;;10.91;75.05
49473;BME280;67434;50.956;6.918;2023-03-14T07:28:10;98578.56;;;10.93;74.73
49473;BME280;67434;50.956;6.918;2023-03-14T07:30:35;98573.66;;;11.04;74.57
49473;BME280;67434;50.956;6.918;2023-03-14T07:33:01;98573.56;;;11.17;74.76
49473;BME280;67434;50.956;6.918;2023-03-14T07:35:26;98578.09;;;11.48;73.76
49473;BME280;67434;50.956;6.918;2023-03-14T07:37:51;98593.59;;;11.65;72.77
49473;BME280;67434;50.956;6.918;2023-03-14T07:40:17;98592.34;;;11.79;72.57
49473;BME280;67434;50.956;6.918;2023-03-14T07:42:42;98597.25;;;11.77;72.19
49473;BME280;67434;50.956;6.918;2023-03-14T07:45:09;98590.44;;;11.80;72.58
49473;BME280;67434;50.956;6.918;2023-03-14T07:47:34;98597.88;;;11.74;72.28
49473;BME280;67434;50.956;6.918;2023-03-14T07:50:00;98603.59;;;11.64;72.44
49473;BME280;67434;50.956;6.918;2023-03-14T07:52:25;98603.63;;;11.73;72.91
49473;BME280;67434;50.956;6.918;2023-03-14T07:54:51;98610.00;;;11.77;72.77
49473;BME280;67434;50.956;6.918;2023-03-14T07:57:16;98597.75;;;11.88;72.83
49473;BME280;67434;50.956;6.918;2023-03-14T07:59:41;98601.63;;;12.04;72.06
49473;BME280;67434;50.956;6.918;2023-03-14T08:02:10;98597.47;;;12.07;71.42
49473;BME280;67434;50.956;6.918;2023-03-14T08:04:37;98600.50;;;12.05;71.75
49473;BME280;67434;50.956;6.918;2023-03-14T08:07:03;98600.97;;;11.99;72.04
49473;BME280;67434;50.956;6.918;2023-03-14T08:09:28;98613.88;;;12.02;71.86
49473;BME280;67434;50.956;6.918;2023-03-14T08:11:54;98613.72;;;11.98;71.96
49473;BME280;67434;50.956;6.918;2023-03-14T08:14:19;98622.31;;;11.92;72.25
49473;BME280;67434;50.956;6.918;2023-03-14T08:16:45;98624.19;;;11.82;72.89
49473;BME280;67434;50.956;6.918;2023-03-14T08:19:10;98619.25;;;11.84;73.65
49473;BME280;67434;50.956;6.918;2023-03-14T08:21:36;98619.63;;;11.92;73.70
49473;BME280;67434;50.956;6.918;2023-03-14T08:24:01;98615.00;;;12.09;73.27
49473;BME280;67434;50.956;6.918;2023-03-14T08:26:27;98627.91;;;12.21;72.83
49473;BME280;67434;50.956;6.918;2023-03-14T08:28:52;98613.56;;;12.12;72.58
49473;BME280;67434;50.956;6.918;2023-03-14T08:31:17;98615.63;;;12.24;72.01
49473;BME280;67434;50.956;6.918;2023-03-14T08:33:43;98606.53;;;12.19;72.17
49473;BME280;67434;50.956;6.918;2023-03-14T08:36:09;98620.88;;;12.03;72.20
49473;BME280;67434;50.956;6.918;2023-03-14T08:38:34;98622.44;;;11.86;73.31
49473;BME280;67434;50.956;6.918;2023-03-14T08:41:01;98628.69;;;11.96;74.60
49473;BME280;67434;50.956;6.918;2023-03-14T08:43:28;98624.25;;;12.08;74.24
49473;BME280;67434;50.956;6.918;2023-03-14T08:45:53;98633.97;;;12.27;72.82
49473;BME280;67434;50.956;6.918;2023-03-14T08:48:22;98626.94;;;12.34;72.86
49473;BME280;67434;50.956;6.918;2023-03-14T08:50:47;98634.91;;;12.22;73.39
49473;BME280;67434;50.956;6.918;2023-03-14T08:53:13;98621.69;;;12.20;73.47
49473;BME280;67434;50.956;6.918;2023-03-14T08:55:38;98638.09;;;12.07;73.03
49473;BME280;67434;50.956;6.918;2023-03-14T08:58:03;98636.50;;;12.06;73.29
49473;BME280;67434;50.956;6.918;2023-03-14T09:00:29;98646.69;;;11.92;72.88
49473;BME280;67434;50.956;6.918;2023-03-14T09:03:25;98656.56;;;11.48;76.11
49473;BME280;67434;50.956;6.918;2023-03-14T09:05:52;98659.97;;;11.22;78.67
49473;BME280;67434;50.956;6.918;2023-03-14T09:08:35;98670.47;;;10.93;80.20
49473;BME280;67434;50.956;6.918;2023-03-14T09:11:01;98681.63;;;10.78;81.29
49473;BME280;67434;50.956;6.918;2023-03-14T09:13:27;98680.03;;;10.77;81.86
49473;BME280;67434;50.956;6.918;2023-03-14T09:15:54;98692.34;;;10.83;81.28
49473;BME280;67434;50.956;6.918;2023-03-14T09:18:31;98686.06;;;10.96;81.75
49473;BME280;67434;50.956;6.918;2023-03-14T09:20:56;98681.81;;;11.04;80.01
49473;BME280;67434;50.956;6.918;2023-03-14T09:23:22;98686.16;;;11.13;78.78
49473;BME280;67434;50.956;6.918;2023-03-14T09:25:47;98701.25;;;11.14;78.96
49473;BME280;67434;50.956;6.918;2023-03-14T09:28:12;98697.16;;;11.17;79.01
49473;BME280;67434;50.956;6.918;2023-03-14T09:30:38;98699.59;;;11.27;79.38
49473;BME280;67434;50.956;6.918;2023-03-14T09:33:04;98711.13;;;11.41;79.67
49473;BME280;67434;50.956;6.918;2023-03-14T09:35:29;98710.75;;;11.34;79.39
49473;BME280;67434;50.956;6.918;2023-03-14T09:37:54;98747.44;;;11.18;80.47
49473;BME280;67434;50.956;6.918;2023-03-14T09:40:20;98803.31;;;10.64;80.81
49473;BME280;67434;50.956;6.918;2023-03-14T09:42:47;98806.44;;;9.89;79.21
49473;BME280;67434;50.956;6.918;2023-03-14T09:45:28;98803.38;;;9.49;80.83
49473;BME280;67434;50.956;6.918;2023-03-14T09:47:55;98828.25;;;8.95;80.68
49473;BME280;67434;50.956;6.918;2023-03-14T09:50:22;98847.13;;;8.76;82.09
49473;BME280;67434;50.956;6.918;2023-03-14T09:52:49;98844.06;;;8.64;82.39
49473;BME280;67434;50.956;6.918;2023-03-14T09:55:19;98856.28;;;8.56;82.84
49473;BME280;67434;50.956;6.918;2023-03-14T09:57:48;98866.50;;;8.54;83.08
49473;BME280;67434;50.956;6.918;2023-03-14T10:00:23;98884.28;;;8.31;83.74
49473;BME280;67434;50.956;6.918;2023-03-14T10:05:38;98901.44;;;8.40;84.13
49473;BME280;67434;50.956;6.918;2023-03-14T10:08:04;98909.59;;;8.54;83.58
49473;BME280;67434;50.956;6.918;2023-03-14T10:10:31;98923.59;;;8.56;84.43
49473;BME280;67434;50.956;6.918;2023-03-14T10:15:37;98950.97;;;8.39;84.21
49473;BME280;67434;50.956;6.918;2023-03-14T10:18:05;98961.53;;;8.31;85.09
49473;BME280;67434;50.956;6.918;2023-03-14T10:20:39;98968.34;;;8.23;84.23
49473;BME280;67434;50.956;6.918;2023-03-14T10:25:43;99004.44;;;7.88;84.75
49473;BME280;67434;50.956;6.918;2023-03-14T10:28:26;99010.44;;;7.75;85.39
49473;BME280;67434;50.956;6.918;2023-03-14T10:30:53;99005.72;;;7.62;84.74
49473;BME280;67434;50.956;6.918;2023-03-14T10:33:30;99038.53;;;7.59;85.33
49473;BME280;67434;50.956;6.918;2023-03-14T10:36:01;99035.28;;;7.62;86.10
49473;BME280;67434;50.956;6.918;2023-03-14T10:38:35;99046.59;;;7.59;86.32
49473;BME280;67434;50.956;6.918;2023-03-14T10:41:15;99059.84;;;7.50;85.95
49473;BME280;67434;50.956;6.918;2023-03-14T10:43:41;99057.88;;;7.61;85.96
49473;BME280;67434;50.956;6.918;2023-03-14T10:46:14;99071.00;;;7.67;85.54
49473;BME280;67434;50.956;6.918;2023-03-14T10:48:41;99076.38;;;7.72;85.30
49473;BME280;67434;50.956;6.918;2023-03-14T10:53:44;99093.41;;;7.58;85.13
49473;BME280;67434;50.956;6.918;2023-03-14T10:56:15;99098.44;;;7.69;85.38
49473;BME280;67434;50.956;6.918;2023-03-14T10:58:46;99102.41;;;7.82;84.62
49473;BME280;67434;50.956;6.918;2023-03-14T11:01:26;99110.69;;;7.91;82.90
49473;BME280;67434;50.956;6.918;2023-03-14T11:06:56;99107.44;;;7.94;83.21
49473;BME280;67434;50.956;6.918;2023-03-14T11:09:36;99133.63;;;7.83;84.12
49473;BME280;67434;50.956;6.918;2023-03-14T11:15:15;99138.94;;;7.93;84.90
49473;BME280;67434;50.956;6.918;2023-03-14T11:21:13;99145.75;;;8.88;81.54
49473;BME280;67434;50.956;6.918;2023-03-14T11:32:36;99167.81;;;8.95;79.35
49473;BME280;67434;50.956;6.918;2023-03-14T11:35:25;99168.69;;;8.85;78.34
49473;BME280;67434;50.956;6.918;2023-03-14T11:37:54;99177.22;;;8.97;78.90
49473;BME280;67434;50.956;6.918;2023-03-14T11:40:23;99233.78;;;8.68;80.16
49473;BME280;67434;50.956;6.918;2023-03-14T11:43:51;99248.88;;;7.25;81.04
49473;BME280;67434;50.956;6.918;2023-03-14T11:46:35;99249.69;;;6.59;84.79
49473;BME280;67434;50.956;6.918;2023-03-14T11:49:15;99244.84;;;6.46;85.68
49473;BME280;67434;50.956;6.918;2023-03-14T11:51:46;99258.25;;;6.36;86.10
49473;BME280;67434;50.956;6.918;2023-03-14T11:54:22;99265.50;;;6.36;86.16
49473;BME280;67434;50.956;6.918;2023-03-14T11:56:59;99272.44;;;6.26;86.28
49473;BME280;67434;50.956;6.918;2023-03-14T11:59:33;99278.94;;;6.41;86.42
49473;BME280;67434;50.956;6.918;2023-03-14T12:02:22;99283.50;;;6.55;86.95
49473;BME280;67434;50.956;6.918;2023-03-14T12:07:34;99298.28;;;6.68;86.03
49473;BME280;67434;50.956;6.918;2023-03-14T12:10:05;99299.09;;;6.69;86.26
49473;BME280;67434;50.956;6.918;2023-03-14T12:12:34;99319.56;;;6.90;86.82
49473;BME280;67434;50.956;6.918;2023-03-14T12:15:01;99326.81;;;7.00;86.37
49473;BME280;67434;50.956;6.918;2023-03-14T12:17:35;99336.75;;;6.89;85.75
49473;BME280;67434;50.956;6.918;2023-03-14T12:22:45;99360.66;;;6.85;86.43
49473;BME280;67434;50.956;6.918;2023-03-14T12:30:27;99384.28;;;6.88;80.80
49473;BME280;67434;50.956;6.918;2023-03-14T12:35:43;99408.47;;;6.88;79.96
49473;BME280;67434;50.956;6.918;2023-03-14T12:41:14;99450.31;;;6.74;78.63
49473;BME280;67434;50.956;6.918;2023-03-14T12:43:40;99442.81;;;6.76;78.75
49473;BME280;67434;50.956;6.918;2023-03-14T12:48:34;99456.28;;;6.92;78.93
49473;BME280;67434;50.956;6.918;2023-03-14T12:51:05;99470.53;;;6.97;79.36
49473;BME280;67434;50.956;6.918;2023-03-14T12:53:50;99462.19;;;6.88;77.64
49473;BME280;67434;50.956;6.918;2023-03-14T13:01:53;99500.75;;;6.67;77.65
49473;BME280;67434;50.956;6.918;2023-03-14T13:04:27;99506.69;;;6.69;78.79
49473;BME280;67434;50.956;6.918;2023-03-14T13:06:58;99524.94;;;6.67;78.95
49473;BME280;67434;50.956;6.918;2023-03-14T13:11:53;99514.69;;;6.59;77.86
49473;BME280;67434;50.956;6.918;2023-03-14T13:14:19;99526.50;;;6.63;79.29
49473;BME280;67434;50.956;6.918;2023-03-14T13:16:46;99545.34;;;6.68;79.09
49473;BME280;67434;50.956;6.918;2023-03-14T13:19:27;99541.66;;;6.79;78.76
49473;BME280;67434;50.956;6.918;2023-03-14T13:22:16;99544.41;;;6.95;78.10
49473;BME280;67434;50.956;6.918;2023-03-14T13:24:42;99554.66;;;7.03;77.68
49473;BME280;67434;50.956;6.918;2023-03-14T13:27:19;99552.88;;;7.24;77.57
49473;BME280;67434;50.956;6.918;2023-03-14T13:29:48;99565.81;;;7.42;76.90
49473;BME280;67434;50.956;6.918;2023-03-14T13:32:19;99567.75;;;7.51;75.90
49473;BME280;67434;50.956;6.918;2023-03-14T13:34:46;99571.25;;;7.52;75.42
49473;BME280;67434;50.956;6.918;2023-03-14T13:37:21;99577.88;;;7.29;75.55
49473;BME280;67434;50.956;6.918;2023-03-14T13:39:56;99590.38;;;7.03;76.73
49473;BME280;67434;50.956;6.918;2023-03-14T13:42:27;99608.88;;;6.95;76.47
49473;BME280;67434;50.956;6.918;2023-03-14T13:44:54;99631.25;;;6.63;75.64
49473;BME280;67434;50.956;6.918;2023-03-14T13:47:23;99628.16;;;6.44;76.67
49473;BME280;67434;50.956;6.918;2023-03-14T13:49:52;99634.38;;;6.50;75.49
49473;BME280;67434;50.956;6.918;2023-03-14T13:52:28;99640.09;;;6.64;75.53
49473;BME280;67434;50.956;6.918;2023-03-14T13:54:55;99647.91;;;6.65;74.57
49473;BME280;67434;50.956;6.918;2023-03-14T13:57:21;99655.56;;;6.83;74.51
49473;BME280;67434;50.956;6.918;2023-03-14T14:00:02;99665.16;;;6.69;72.35
49473;BME280;67434;50.956;6.918;2023-03-14T14:02:32;99658.13;;;6.68;71.68
49473;BME280;67434;50.956;6.918;2023-03-14T14:05:01;99667.16;;;6.89;72.96
49473;BME280;67434;50.956;6.918;2023-03-14T14:07:26;99679.31;;;7.02;70.57
49473;BME280;67434;50.956;6.918;2023-03-14T14:09:53;99686.28;;;6.98;71.79
49473;BME280;67434;50.956;6.918;2023-03-14T14:12:27;99690.72;;;7.19;72.33
49473;BME280;67434;50.956;6.918;2023-03-14T14:15:22;99688.72;;;7.46;70.41
49473;BME280;67434;50.956;6.918;2023-03-14T14:17:53;99707.59;;;7.57;71.09
49473;BME280;67434;50.956;6.918;2023-03-14T14:20:23;99702.13;;;7.41;71.28